Time;durP1;ratioP1;P1;durP2;ratioP2;P2;SDS_P1;SDS_P2;PMS_P1;PMS_P2;Temp;Humidity;BMP_temperature;BMP_pressure;BME280_temperature;BME280_humidity;BME280_pressure;Samples;Min_cycle;Max_cycle;Signal;HPM_P1;HPM_P2
2021/08/17 00:01:09;;;;;;;26.33;7.68;;;12.10;99.90;;;;;;4915061;29;20016;-56
2021/08/17 00:03:35;;;;;;;20.40;7.68;;;12.10;99.90;;;;;;4906105;29;20040;-57
2021/08/17 00:08:37;;;;;;;29.75;8.70;;;12.10;99.90;;;;;;4901842;29;20043;-56
2021/08/17 00:11:02;;;;;;;24.40;7.50;;;12.10;99.90;;;;;;4907037;29;20036;-57
2021/08/17 00:13:28;;;;;;;24.60;7.60;;;12.10;99.90;;;;;;4908716;29;20031;-57
2021/08/17 00:15:54;;;;;;;23.92;6.57;;;12.10;99.90;;;;;;4911291;29;20032;-57
2021/08/17 00:18:19;;;;;;;22.20;6.72;;;12.10;99.90;;;;;;4913011;29;20055;-58
2021/08/17 00:20:46;;;;;;;24.17;7.80;;;12.10;99.90;;;;;;4904115;29;20152;-60
2021/08/17 00:23:11;;;;;;;24.55;7.57;;;12.20;99.90;;;;;;4910617;29;20036;-55
2021/08/17 00:25:42;;;;;;;24.17;7.75;;;12.20;99.90;;;;;;4910802;29;20032;-55
2021/08/17 00:28:08;;;;;;;24.30;8.05;;;12.20;99.90;;;;;;4908461;29;20024;-57
2021/08/17 00:30:33;;;;;;;22.67;8.23;;;12.30;99.90;;;;;;4904492;29;20036;-58
2021/08/17 00:32:59;;;;;;;29.92;8.13;;;12.20;99.90;;;;;;4908302;29;20032;-59
2021/08/17 00:35:25;;;;;;;26.80;9.30;;;12.20;99.90;;;;;;4909388;29;20412;-59
2021/08/17 00:37:52;;;;;;;28.55;10.00;;;12.20;99.90;;;;;;4908764;29;20032;-59
2021/08/17 00:40:17;;;;;;;28.60;11.05;;;12.20;99.90;;;;;;4910821;29;20415;-58
2021/08/17 00:42:45;;;;;;;33.33;10.88;;;12.20;99.90;;;;;;4905352;29;20030;-57
2021/08/17 00:45:20;;;;;;;27.15;10.13;;;12.20;99.90;;;;;;4909567;29;20020;-57
2021/08/17 00:47:46;;;;;;;32.78;11.07;;;12.20;99.90;;;;;;4905821;29;20088;-56
2021/08/17 00:50:12;;;;;;;26.75;11.25;;;12.20;99.90;;;;;;4913039;29;20036;-56
2021/08/17 00:52:39;;;;;;;26.58;10.85;;;12.20;99.90;;;;;;4908675;29;20047;-56
2021/08/17 00:55:06;;;;;;;27.45;11.00;;;12.20;99.90;;;;;;4913389;29;20024;-58
2021/08/17 00:57:32;;;;;;;35.35;12.50;;;12.20;99.90;;;;;;4901333;29;20035;-57
2021/08/17 00:59:58;;;;;;;33.45;13.70;;;12.20;99.90;;;;;;4906000;29;20032;-55
2021/08/17 01:02:23;;;;;;;33.50;12.68;;;12.20;99.90;;;;;;4905155;29;20099;-53
2021/08/17 01:04:49;;;;;;;40.10;13.15;;;12.20;99.90;;;;;;4911303;29;20036;-56
2021/08/17 01:07:15;;;;;;;31.70;13.13;;;12.10;99.90;;;;;;4903644;29;20028;-54
2021/08/17 01:09:41;;;;;;;39.25;13.70;;;12.10;99.90;;;;;;4906778;29;20037;-55
2021/08/17 01:12:08;;;;;;;46.92;15.02;;;12.10;99.90;;;;;;4911852;29;20448;-55
2021/08/17 01:14:34;;;;;;;42.80;15.10;;;12.10;99.90;;;;;;4906564;29;20047;-56
2021/08/17 01:17:01;;;;;;;42.75;15.10;;;12.10;99.90;;;;;;4911827;29;20067;-58
2021/08/17 01:19:26;;;;;;;38.92;14.85;;;12.10;99.90;;;;;;4909127;29;20031;-56
2021/08/17 01:21:52;;;;;;;40.00;16.52;;;12.10;99.90;;;;;;4908126;29;20028;-56
2021/08/17 01:24:18;;;;;;;47.08;17.10;;;12.10;99.90;;;;;;4906807;29;20032;-56
2021/08/17 01:26:44;;;;;;;49.53;17.27;;;12.00;99.90;;;;;;4913641;29;20516;-55
2021/08/17 01:29:12;;;;;;;44.10;17.05;;;12.00;99.90;;;;;;4913147;29;20028;-56
2021/08/17 01:31:38;;;;;;;52.83;17.85;;;12.00;99.90;;;;;;4912232;29;20036;-57
2021/08/17 01:34:04;;;;;;;55.10;19.58;;;12.00;99.90;;;;;;4913243;29;20036;-57
2021/08/17 01:36:32;;;;;;;55.20;19.50;;;12.10;99.90;;;;;;4913653;29;20074;-52
2021/08/17 01:38:57;;;;;;;54.25;19.10;;;12.10;99.90;;;;;;4911257;29;20107;-59
2021/08/17 01:41:23;;;;;;;58.35;18.58;;;12.10;99.90;;;;;;4909997;29;20111;-53
2021/08/17 01:43:49;;;;;;;53.33;19.38;;;12.10;99.90;;;;;;4900254;29;20901;-54
2021/08/17 01:46:14;;;;;;;55.13;22.48;;;12.10;99.90;;;;;;4912221;29;20411;-57
2021/08/17 01:48:40;;;;;;;54.67;21.27;;;12.10;99.90;;;;;;4901985;29;20107;-55
2021/08/17 01:51:07;;;;;;;55.78;19.67;;;12.10;99.90;;;;;;4909277;29;20456;-57
2021/08/17 01:53:33;;;;;;;59.17;20.45;;;12.20;99.90;;;;;;4909623;29;20032;-53
2021/08/17 01:56:06;;;;;;;61.53;21.17;;;12.20;99.90;;;;;;4908436;29;20032;-58
2021/08/17 01:58:32;;;;;;;57.92;22.30;;;12.20;99.90;;;;;;4908312;29;20064;-51
2021/08/17 02:00:57;;;;;;;70.13;23.60;;;12.20;99.90;;;;;;4900836;29;20032;-55
2021/08/17 02:03:23;;;;;;;61.13;23.65;;;12.20;99.90;;;;;;4909323;29;20090;-55
2021/08/17 02:05:49;;;;;;;66.43;23.83;;;12.20;99.90;;;;;;4906290;29;20047;-56
2021/08/17 02:08:14;;;;;;;65.43;25.50;;;12.30;99.90;;;;;;4908718;29;20538;-57
2021/08/17 02:10:40;;;;;;;61.17;25.98;;;12.20;99.90;;;;;;4906867;29;20398;-56
2021/08/17 02:13:06;;;;;;;67.95;25.65;;;12.30;99.90;;;;;;4910455;29;20055;-56
2021/08/17 02:15:32;;;;;;;70.60;25.52;;;12.30;99.90;;;;;;4908003;29;20124;-57
2021/08/17 02:17:58;;;;;;;67.00;25.52;;;12.30;99.90;;;;;;4897120;29;20021;-56
2021/08/17 02:20:24;;;;;;;69.18;27.77;;;12.30;99.90;;;;;;4911598;29;20412;-57
2021/08/17 02:22:50;;;;;;;71.50;25.45;;;12.30;99.90;;;;;;4908002;29;20032;-59
2021/08/17 02:25:15;;;;;;;76.10;27.42;;;12.30;99.90;;;;;;4905597;29;20516;-59
2021/08/17 02:27:41;;;;;;;72.47;27.08;;;12.40;99.90;;;;;;4900215;29;20088;-56
2021/08/17 02:30:07;;;;;;;76.45;27.95;;;12.30;99.90;;;;;;4908651;29;20099;-56
2021/08/17 02:32:33;;;;;;;82.28;28.35;;;12.40;99.90;;;;;;4902340;29;20565;-54
2021/08/17 02:34:59;;;;;;;72.90;25.73;;;12.30;99.90;;;;;;4907511;29;20020;-57
2021/08/17 02:37:25;;;;;;;80.28;28.77;;;12.40;99.90;;;;;;4901702;29;20027;-54
2021/08/17 02:39:51;;;;;;;75.50;27.73;;;12.40;99.90;;;;;;4907132;29;20036;-56
2021/08/17 02:42:17;;;;;;;81.90;30.92;;;12.40;99.90;;;;;;4910314;29;20032;-55
2021/08/17 02:44:43;;;;;;;70.78;26.88;;;12.40;99.90;;;;;;4927832;29;20040;-56
2021/08/17 02:47:08;;;;;;;77.80;32.00;;;12.40;99.90;;;;;;4908972;29;20036;-58
2021/08/17 02:49:34;;;;;;;74.50;28.63;;;12.40;99.90;;;;;;4913733;29;20526;-57
2021/08/17 02:52:04;;;;;;;67.28;27.67;;;12.40;99.90;;;;;;4909193;29;20047;-56
2021/08/17 02:54:33;;;;;;;79.07;29.45;;;12.40;99.90;;;;;;4912574;29;20043;-57
2021/08/17 02:56:58;;;;;;;71.68;27.27;;;12.50;99.90;;;;;;4908134;29;20567;-55
2021/08/17 02:59:24;;;;;;;91.30;30.00;;;12.50;99.90;;;;;;4910494;29;20076;-57
2021/08/17 03:01:49;;;;;;;74.90;28.30;;;12.50;99.90;;;;;;4909176;29;20408;-55
2021/08/17 03:04:15;;;;;;;81.30;30.92;;;12.40;99.90;;;;;;4914242;29;20115;-54
2021/08/17 03:06:40;;;;;;;69.47;27.92;;;12.40;99.90;;;;;;4904300;29;20040;-55
2021/08/17 03:09:06;;;;;;;76.70;31.65;;;12.40;99.90;;;;;;4909017;29;20068;-56
2021/08/17 03:11:32;;;;;;;82.38;29.15;;;12.40;99.90;;;;;;4908598;29;20051;-56
2021/08/17 03:13:57;;;;;;;78.85;31.10;;;12.50;99.90;;;;;;4909411;29;20037;-54
2021/08/17 03:16:24;;;;;;;80.18;30.17;;;12.50;99.90;;;;;;4912625;29;20028;-56
2021/08/17 03:18:50;;;;;;;68.82;28.00;;;12.50;99.90;;;;;;4906735;29;20028;-56
2021/08/17 03:21:15;;;;;;;85.53;31.73;;;12.50;99.90;;;;;;4912569;29;20084;-57
2021/08/17 03:23:42;;;;;;;76.13;30.02;;;12.50;99.90;;;;;;4911162;29;20024;-54
2021/08/17 03:26:07;;;;;;;70.57;28.13;;;12.50;99.90;;;;;;4908907;29;20024;-56
2021/08/17 03:28:33;;;;;;;81.25;30.42;;;12.50;99.90;;;;;;4909703;29;20040;-50
2021/08/17 03:30:58;;;;;;;72.78;29.15;;;12.50;99.90;;;;;;4907611;29;20033;-58
2021/08/17 03:33:24;;;;;;;73.45;29.50;;;12.50;99.90;;;;;;4911374;29;20487;-57
2021/08/17 03:35:50;;;;;;;74.78;29.65;;;12.50;99.90;;;;;;4908420;29;20031;-57
2021/08/17 03:38:15;;;;;;;70.43;28.65;;;12.50;99.90;;;;;;4913626;29;20020;-56
2021/08/17 03:40:41;;;;;;;74.50;28.83;;;12.50;99.90;;;;;;4912324;29;20476;-56
2021/08/17 03:43:07;;;;;;;68.35;28.23;;;12.50;99.90;;;;;;4910819;29;20033;-55
2021/08/17 03:45:33;;;;;;;79.50;28.27;;;12.50;99.90;;;;;;4908319;29;20040;-59
2021/08/17 03:47:58;;;;;;;71.75;29.15;;;12.40;99.90;;;;;;4906918;29;20083;-57
2021/08/17 03:50:24;;;;;;;76.78;28.77;;;12.40;99.90;;;;;;4912636;29;20127;-56
2021/08/17 03:52:50;;;;;;;71.90;29.40;;;12.50;99.90;;;;;;4910792;29;20047;-56
2021/08/17 03:55:15;;;;;;;74.25;29.40;;;12.50;99.90;;;;;;4932518;23;20052;-57
2021/08/17 03:57:41;;;;;;;75.45;29.15;;;12.50;99.90;;;;;;4914904;29;20038;-58
2021/08/17 04:00:09;;;;;;;73.80;30.13;;;12.40;99.90;;;;;;4919493;29;20016;-60
2021/08/17 04:02:35;;;;;;;76.53;31.13;;;12.50;99.90;;;;;;4925148;29;20043;-53
2021/08/17 04:05:00;;;;;;;76.07;31.08;;;12.50;99.90;;;;;;4919339;29;20115;-56
2021/08/17 04:07:26;;;;;;;69.00;29.58;;;12.50;99.90;;;;;;4918995;29;20060;-60
2021/08/17 04:09:51;;;;;;;72.43;30.00;;;12.50;99.90;;;;;;4914332;29;20035;-59
2021/08/17 04:12:17;;;;;;;70.53;29.35;;;12.50;99.90;;;;;;4913645;29;20035;-60
2021/08/17 04:14:42;;;;;;;76.40;30.08;;;12.50;99.90;;;;;;4916626;29;20040;-61
2021/08/17 04:17:08;;;;;;;81.15;30.88;;;12.50;99.90;;;;;;4913606;29;20027;-59
2021/08/17 04:19:38;;;;;;;73.60;29.55;;;12.50;99.90;;;;;;4914289;29;20408;-59
2021/08/17 04:22:05;;;;;;;78.70;30.38;;;12.50;99.90;;;;;;4917134;29;20028;-58
2021/08/17 04:24:30;;;;;;;81.65;31.17;;;12.50;99.90;;;;;;4922270;29;20036;-61
2021/08/17 04:26:56;;;;;;;74.50;29.25;;;12.40;99.90;;;;;;4919630;29;20382;-59
2021/08/17 04:29:21;;;;;;;78.50;30.25;;;12.40;99.90;;;;;;4913040;29;20043;-58
2021/08/17 04:31:47;;;;;;;80.65;30.35;;;12.40;99.90;;;;;;4914662;29;20075;-58
2021/08/17 04:34:12;;;;;;;73.80;28.95;;;12.40;99.90;;;;;;4915990;29;20063;-59
2021/08/17 04:36:38;;;;;;;69.28;27.55;;;12.50;99.90;;;;;;4914032;29;20083;-55
2021/08/17 04:39:03;;;;;;;74.45;28.98;;;12.50;99.90;;;;;;4916996;29;20087;-57
2021/08/17 04:41:29;;;;;;;74.65;30.58;;;12.50;99.90;;;;;;4914030;29;20456;-62
2021/08/17 04:43:54;;;;;;;68.05;28.98;;;12.50;99.90;;;;;;4913971;29;20103;-59
2021/08/17 04:46:20;;;;;;;67.47;28.88;;;12.50;99.90;;;;;;4912244;29;20032;-57
2021/08/17 04:48:47;;;;;;;59.30;26.50;;;12.60;99.90;;;;;;4911640;29;20024;-59
2021/08/17 04:51:12;;;;;;;69.32;26.73;;;12.60;99.90;;;;;;4913689;29;20066;-61
2021/08/17 04:53:38;;;;;;;63.72;27.38;;;12.60;99.90;;;;;;4911300;29;20082;-58
2021/08/17 04:56:04;;;;;;;64.60;27.40;;;12.70;99.90;;;;;;4912098;29;20070;-60
2021/08/17 04:58:30;;;;;;;64.95;27.88;;;12.70;99.90;;;;;;4912951;29;20043;-59
2021/08/17 05:00:55;;;;;;;63.40;27.23;;;12.70;99.90;;;;;;4931186;28;21147;-60
2021/08/17 05:03:23;;;;;;;57.42;25.38;;;12.80;99.90;;;;;;4911924;29;20068;-59
2021/08/17 05:05:48;;;;;;;62.22;26.98;;;12.80;99.90;;;;;;4911716;29;20279;-60
2021/08/17 05:08:14;;;;;;;59.58;26.23;;;12.90;99.90;;;;;;4912204;29;20115;-60
2021/08/17 05:10:39;;;;;;;63.25;26.38;;;13.00;99.90;;;;;;4913380;29;20032;-60
2021/08/17 05:13:05;;;;;;;59.58;27.88;;;12.90;99.90;;;;;;4913881;29;20032;-60
2021/08/17 05:15:32;;;;;;;61.85;25.88;;;12.90;99.90;;;;;;4929203;29;20534;-60
2021/08/17 05:17:58;;;;;;;53.88;25.52;;;13.00;99.90;;;;;;4913078;29;20107;-60
2021/08/17 05:20:24;;;;;;;62.50;26.23;;;13.00;99.90;;;;;;4913595;29;20029;-60
2021/08/17 05:22:50;;;;;;;55.63;26.00;;;13.10;99.90;;;;;;4914494;29;20551;-58
2021/08/17 05:25:16;;;;;;;56.42;24.13;;;13.00;99.90;;;;;;4912640;29;21506;-58
2021/08/17 05:27:42;;;;;;;61.47;25.35;;;13.00;99.90;;;;;;4911445;29;20039;-59
2021/08/17 05:30:09;;;;;;;58.10;26.98;;;13.10;99.90;;;;;;4912418;29;20039;-58
2021/08/17 05:32:34;;;;;;;53.38;23.50;;;13.10;99.90;;;;;;4913693;29;20472;-52
2021/08/17 05:35:01;;;;;;;48.45;22.85;;;13.20;99.90;;;;;;4919558;29;20094;-58
2021/08/17 05:37:26;;;;;;;57.90;24.55;;;13.20;99.90;;;;;;4915052;29;20399;-60
2021/08/17 05:39:52;;;;;;;56.10;25.48;;;13.20;99.90;;;;;;4913141;29;20035;-54
2021/08/17 05:42:18;;;;;;;50.00;24.20;;;13.30;99.90;;;;;;4912055;29;20083;-57
2021/08/17 05:44:45;;;;;;;50.70;23.80;;;13.30;99.90;;;;;;4913232;29;20040;-58
2021/08/17 05:47:11;;;;;;;54.35;24.90;;;13.30;99.90;;;;;;4913672;29;20058;-55
2021/08/17 05:49:38;;;;;;;48.65;23.52;;;13.30;99.90;;;;;;4910891;29;20035;-54
2021/08/17 05:52:05;;;;;;;58.63;25.77;;;13.30;99.90;;;;;;4910653;29;20032;-60
2021/08/17 05:54:31;;;;;;;61.08;24.40;;;13.40;99.90;;;;;;4910761;29;20035;-60
2021/08/17 05:56:58;;;;;;;58.20;23.50;;;13.40;99.90;;;;;;4921628;29;20028;-53
2021/08/17 05:59:27;;;;;;;52.58;24.27;;;13.40;99.90;;;;;;4912173;29;20024;-58
2021/08/17 06:01:54;;;;;;;51.83;24.55;;;13.50;99.90;;;;;;4911970;29;20543;-60
2021/08/17 06:04:20;;;;;;;47.92;23.33;;;13.40;99.90;;;;;;4912695;29;20047;-58
2021/08/17 06:06:47;;;;;;;49.97;22.33;;;13.50;99.90;;;;;;4915844;29;20031;-54
2021/08/17 06:09:12;;;;;;;47.65;22.42;;;13.50;99.90;;;;;;4911057;29;20080;-58
2021/08/17 06:11:38;;;;;;;52.85;25.13;;;13.40;99.90;;;;;;4912499;29;20068;-59
2021/08/17 06:14:03;;;;;;;51.67;24.58;;;13.40;99.90;;;;;;4914669;29;20061;-62
2021/08/17 06:16:29;;;;;;;52.60;23.70;;;13.40;99.90;;;;;;4920259;29;20087;-60
2021/08/17 06:18:54;;;;;;;47.58;24.38;;;13.40;99.90;;;;;;4920091;29;20031;-56
2021/08/17 06:21:20;;;;;;;44.25;22.25;;;13.50;99.90;;;;;;4920024;29;20126;-55
2021/08/17 06:23:46;;;;;;;50.08;24.00;;;13.60;99.90;;;;;;4920263;29;20044;-53
2021/08/17 06:26:11;;;;;;;47.70;22.60;;;13.60;99.90;;;;;;4934482;29;20035;-58
2021/08/17 06:28:37;;;;;;;49.78;24.85;;;13.60;99.90;;;;;;4931461;29;20043;-53
2021/08/17 06:31:03;;;;;;;50.38;24.23;;;13.60;99.90;;;;;;4921104;29;20091;-54
2021/08/17 06:33:28;;;;;;;46.38;23.27;;;13.60;99.90;;;;;;4918739;29;20048;-59
2021/08/17 06:35:54;;;;;;;44.63;21.90;;;13.70;99.90;;;;;;4920789;29;20496;-60
2021/08/17 06:38:19;;;;;;;46.47;23.55;;;13.90;99.90;;;;;;4918723;29;20028;-62
2021/08/17 06:40:45;;;;;;;43.97;22.92;;;13.90;99.90;;;;;;4918582;29;20059;-58
2021/08/17 06:43:11;;;;;;;44.75;23.08;;;14.00;99.90;;;;;;4917383;29;20503;-59
2021/08/17 06:45:36;;;;;;;50.05;21.23;;;14.10;99.90;;;;;;4918438;29;20410;-59
2021/08/17 06:48:02;;;;;;;41.22;21.70;;;14.10;99.90;;;;;;4917800;29;20543;-57
2021/08/17 06:50:27;;;;;;;47.00;21.52;;;14.20;99.90;;;;;;4916914;29;20031;-60
2021/08/17 06:52:53;;;;;;;44.22;20.65;;;14.30;99.90;;;;;;4918550;29;20758;-61
2021/08/17 06:55:18;;;;;;;44.78;22.40;;;14.40;99.90;;;;;;4918460;29;20053;-61
2021/08/17 06:57:44;;;;;;;37.95;21.48;;;14.50;99.90;;;;;;4918001;29;20108;-61
2021/08/17 07:00:10;;;;;;;41.17;20.00;;;14.50;99.90;;;;;;4883850;28;20417;-60
2021/08/17 07:02:37;;;;;;;44.42;20.70;;;14.80;99.90;;;;;;4916449;29;20090;-58
2021/08/17 07:05:04;;;;;;;37.65;20.33;;;14.70;99.90;;;;;;4922646;29;20087;-61
2021/08/17 07:07:29;;;;;;;39.70;20.63;;;14.90;99.90;;;;;;4917671;29;20401;-57
2021/08/17 07:09:55;;;;;;;35.17;20.10;;;14.70;99.90;;;;;;4917863;29;20028;-61
2021/08/17 07:12:21;;;;;;;37.80;20.17;;;14.90;99.90;;;;;;4917073;29;20088;-60
2021/08/17 07:14:46;;;;;;;35.20;19.75;;;14.90;99.90;;;;;;4917490;29;20075;-59
2021/08/17 07:17:12;;;;;;;36.17;17.60;;;15.20;99.90;;;;;;4918280;29;20028;-60
2021/08/17 07:19:37;;;;;;;39.50;20.60;;;15.40;99.90;;;;;;4916999;29;20028;-60
2021/08/17 07:22:03;;;;;;;40.60;20.42;;;15.40;99.90;;;;;;4917992;29;20043;-59
2021/08/17 07:24:29;;;;;;;35.03;18.27;;;15.30;99.90;;;;;;4918261;29;20050;-55
2021/08/17 07:26:55;;;;;;;36.33;19.85;;;15.20;99.90;;;;;;4918531;29;20031;-60
2021/08/17 07:29:21;;;;;;;35.65;19.33;;;15.30;99.90;;;;;;4915591;29;20040;-56
2021/08/17 07:31:47;;;;;;;38.08;20.15;;;15.30;99.90;;;;;;4917116;29;20028;-52
2021/08/17 07:34:12;;;;;;;37.45;19.77;;;15.60;99.90;;;;;;4917562;29;20931;-60
2021/08/17 07:36:39;;;;;;;30.75;17.25;;;16.00;99.90;;;;;;4915195;28;20098;-60
2021/08/17 07:39:06;;;;;;;36.92;18.60;;;16.30;99.90;;;;;;4916909;29;20377;-60
2021/08/17 07:41:32;;;;;;;35.10;17.70;;;16.70;99.90;;;;;;4909300;29;20024;-61
2021/08/17 07:43:58;;;;;;;30.30;17.77;;;16.90;99.90;;;;;;4915559;29;20828;-59
2021/08/17 07:46:24;;;;;;;37.38;20.75;;;17.30;99.90;;;;;;4913862;29;20063;-60
2021/08/17 07:48:49;;;;;;;30.63;17.17;;;17.30;99.90;;;;;;4913323;29;20031;-59
2021/08/17 07:51:16;;;;;;;33.45;18.88;;;17.30;99.90;;;;;;4912796;29;20399;-58
2021/08/17 07:53:42;;;;;;;33.05;17.85;;;17.30;99.90;;;;;;4918340;29;20055;-56
2021/08/17 07:56:07;;;;;;;32.83;18.42;;;17.40;99.90;;;;;;4914300;29;20036;-58
2021/08/17 07:58:33;;;;;;;35.83;16.95;;;17.20;99.90;;;;;;4913071;29;20039;-59
2021/08/17 08:00:59;;;;;;;37.63;17.67;;;17.10;99.90;;;;;;4904278;28;20107;-57
2021/08/17 08:03:25;;;;;;;43.78;19.80;;;16.80;99.90;;;;;;4914290;29;20036;-56
2021/08/17 08:05:51;;;;;;;43.20;19.98;;;16.70;99.90;;;;;;4914343;29;20088;-60
2021/08/17 08:08:16;;;;;;;36.83;18.83;;;16.70;99.90;;;;;;4914796;29;20582;-59
2021/08/17 08:10:42;;;;;;;40.40;20.55;;;16.70;99.90;;;;;;4914598;29;20143;-60
2021/08/17 08:13:08;;;;;;;41.22;20.98;;;16.60;99.90;;;;;;4914393;29;20028;-58
2021/08/17 08:15:33;;;;;;;44.90;21.05;;;16.60;99.90;;;;;;4914312;29;20040;-61
2021/08/17 08:17:59;;;;;;;43.53;21.40;;;16.60;99.90;;;;;;4914069;29;20048;-59
2021/08/17 08:20:25;;;;;;;37.15;20.27;;;16.60;99.90;;;;;;4918178;29;20055;-59
2021/08/17 08:22:50;;;;;;;42.30;19.88;;;16.70;99.90;;;;;;4923074;29;20036;-56
2021/08/17 08:25:17;;;;;;;36.38;19.05;;;16.80;99.90;;;;;;4914167;29;20076;-58
2021/08/17 08:27:43;;;;;;;41.55;19.27;;;17.00;99.90;;;;;;4921726;29;20032;-61
2021/08/17 08:30:10;;;;;;;38.95;20.27;;;17.20;99.90;;;;;;4918907;29;20593;-62
2021/08/17 08:32:36;;;;;;;38.22;20.92;;;17.40;99.90;;;;;;4914783;29;20038;-59
2021/08/17 08:35:03;;;;;;;37.50;19.17;;;17.50;99.90;;;;;;4913928;29;20024;-59
2021/08/17 08:37:28;;;;;;;38.10;19.88;;;17.60;99.90;;;;;;4910758;29;20039;-57
2021/08/17 08:39:57;;;;;;;37.08;18.83;;;17.80;99.90;;;;;;4908877;29;20028;-57
2021/08/17 08:42:22;;;;;;;35.28;19.15;;;18.10;99.90;;;;;;4911178;29;20483;-56
2021/08/17 08:44:49;;;;;;;37.92;17.52;;;18.10;99.90;;;;;;4909877;29;20047;-57
2021/08/17 08:47:14;;;;;;;39.28;19.23;;;17.90;99.90;;;;;;4912186;29;20476;-55
2021/08/17 08:49:42;;;;;;;32.97;17.40;;;17.50;99.90;;;;;;4910184;29;20052;-57
2021/08/17 08:52:08;;;;;;;31.90;17.42;;;17.50;99.90;;;;;;4910309;29;20032;-57
2021/08/17 08:54:34;;;;;;;34.88;19.02;;;17.50;99.90;;;;;;4914161;29;20035;-57
2021/08/17 08:56:59;;;;;;;33.42;18.02;;;17.70;99.90;;;;;;4916951;29;20051;-60
2021/08/17 08:59:25;;;;;;;31.98;17.55;;;17.90;99.90;;;;;;4922361;29;20042;-60
2021/08/17 09:02:06;;;;;;;30.85;16.60;;;18.80;99.90;;;;;;4917791;29;20107;-59
2021/08/17 09:04:32;;;;;;;32.55;16.52;;;19.10;99.90;;;;;;4921792;29;20032;-57
2021/08/17 09:06:58;;;;;;;28.88;15.85;;;19.10;99.90;;;;;;4906507;29;20330;-59
2021/08/17 09:09:23;;;;;;;29.00;16.08;;;19.30;99.90;;;;;;4918095;29;20040;-57
2021/08/17 09:11:54;;;;;;;34.05;17.23;;;19.10;99.90;;;;;;4917272;29;20047;-57
2021/08/17 09:14:27;;;;;;;31.10;15.88;;;18.80;99.90;;;;;;4923426;29;20036;-61
2021/08/17 09:16:55;;;;;;;24.73;14.77;;;18.80;99.90;;;;;;4927042;29;20039;-59
2021/08/17 09:19:33;;;;;;;35.13;16.58;;;18.30;99.90;;;;;;4922316;29;20040;-55
2021/08/17 09:22:04;;;;;;;28.20;15.80;;;18.00;99.90;;;;;;4913835;29;20035;-57
2021/08/17 09:24:35;;;;;;;31.95;15.43;;;18.10;99.90;;;;;;4916996;29;20250;-57
2021/08/17 09:27:06;;;;;;;27.13;14.75;;;18.10;99.90;;;;;;4913981;29;20091;-57
2021/08/17 09:29:40;;;;;;;31.17;14.82;;;17.90;99.90;;;;;;4914213;29;20042;-59
2021/08/17 09:32:22;;;;;;;29.63;15.55;;;18.00;99.90;;;;;;4916760;29;20164;-57
2021/08/17 09:34:50;;;;;;;27.80;14.20;;;18.40;99.90;;;;;;4909913;29;20084;-60
2021/08/17 09:37:17;;;;;;;28.35;14.48;;;18.80;99.90;;;;;;4921573;29;20032;-60
2021/08/17 09:39:49;;;;;;;35.17;14.57;;;19.00;99.90;;;;;;4912738;29;20039;-58
2021/08/17 09:42:29;;;;;;;23.63;13.65;;;19.30;99.90;;;;;;4919306;29;20427;-60
2021/08/17 09:45:07;;;;;;;25.38;15.10;;;19.40;99.90;;;;;;4913843;29;20060;-60
2021/08/17 09:47:34;;;;;;;23.88;13.40;;;19.60;99.90;;;;;;4920539;29;20028;-58
2021/08/17 09:50:18;;;;;;;23.48;12.93;;;19.80;99.90;;;;;;4912884;29;20106;-58
2021/08/17 09:52:44;;;;;;;28.77;12.93;;;20.00;99.90;;;;;;4913195;29;20039;-60
2021/08/17 09:55:21;;;;;;;24.40;13.40;;;19.90;99.90;;;;;;4912879;29;20024;-58
2021/08/17 09:57:48;;;;;;;24.10;13.52;;;19.80;99.90;;;;;;4920154;29;20059;-58
2021/08/17 10:00:15;;;;;;;25.30;14.02;;;19.60;99.90;;;;;;4912849;29;20686;-59
2021/08/17 10:02:48;;;;;;;25.25;13.10;;;19.60;99.90;;;;;;4914954;29;20032;-52
2021/08/17 10:05:15;;;;;;;24.83;13.18;;;19.40;99.90;;;;;;4911229;29;20026;-59
2021/08/17 10:07:42;;;;;;;24.20;14.00;;;19.30;99.90;;;;;;4922130;29;20107;-54
2021/08/17 10:10:11;;;;;;;25.40;12.98;;;19.20;99.90;;;;;;4904130;28;20137;-59
2021/08/17 10:12:39;;;;;;;22.90;12.55;;;19.20;99.90;;;;;;4915423;29;20083;-55
2021/08/17 10:15:07;;;;;;;22.08;12.02;;;19.50;99.90;;;;;;4912601;29;20028;-55
2021/08/17 10:17:32;;;;;;;22.70;13.00;;;19.40;99.90;;;;;;4914621;29;20031;-59
2021/08/17 10:19:58;;;;;;;21.10;12.77;;;19.70;99.90;;;;;;4918634;29;20036;-56
2021/08/17 10:22:24;;;;;;;22.33;12.70;;;19.70;99.90;;;;;;4913845;29;20087;-57
2021/08/17 10:24:50;;;;;;;22.60;13.43;;;19.60;99.90;;;;;;4913503;29;20411;-56
2021/08/17 10:27:33;;;;;;;26.48;13.43;;;19.30;99.90;;;;;;4913068;29;20027;-56
2021/08/17 10:30:00;;;;;;;31.67;14.15;;;19.20;99.90;;;;;;4910665;29;20032;-55
2021/08/17 10:32:50;;;;;;;27.20;14.60;;;19.00;99.90;;;;;;4916474;29;20031;-58
2021/08/17 10:35:34;;;;;;;20.92;13.40;;;18.90;99.90;;;;;;4916065;29;20024;-57
2021/08/17 10:38:08;;;;;;;22.52;13.48;;;18.60;99.90;;;;;;4916060;29;20534;-58
2021/08/17 10:40:52;;;;;;;23.52;13.52;;;18.70;99.90;;;;;;4914426;29;20028;-52
2021/08/17 10:43:27;;;;;;;;;;;18.90;99.90;;;;;;4917389;29;20110;-58
2021/08/17 10:46:13;;;;;;;;;;;19.00;99.90;;;;;;4919132;29;20298;-57
2021/08/17 10:48:45;;;;;;;25.25;12.80;;;19.20;99.90;;;;;;4920092;29;19919;-58
2021/08/17 10:51:18;;;;;;;26.92;13.43;;;19.00;99.90;;;;;;4920548;28;20111;-55
2021/08/17 10:53:59;;;;;;;26.70;14.10;;;18.80;99.90;;;;;;4913511;29;20069;-53
2021/08/17 10:56:30;;;;;;;23.77;13.93;;;18.40;99.90;;;;;;4911240;29;20032;-58
2021/08/17 10:58:57;;;;;;;24.05;13.25;;;18.20;99.90;;;;;;4911153;29;20035;-58
2021/08/17 11:01:32;;;;;;;20.85;12.50;;;18.10;99.90;;;;;;4907905;29;20033;-59
2021/08/17 11:04:11;;;;;;;26.05;13.52;;;18.10;99.90;;;;;;4915178;29;20403;-55
2021/08/17 11:06:56;;;;;;;31.70;14.68;;;18.30;99.90;;;;;;4913627;29;20036;-55
2021/08/17 11:09:25;;;;;;;27.67;14.60;;;18.10;99.90;;;;;;4913001;29;20106;-58
2021/08/17 11:12:02;;;;;;;27.75;13.70;;;18.30;99.90;;;;;;4918509;29;20419;-57
2021/08/17 11:14:33;;;;;;;27.95;13.40;;;18.20;99.90;;;;;;4916695;29;20039;-60
2021/08/17 11:17:04;;;;;;;26.10;12.73;;;18.40;99.90;;;;;;4917115;29;20035;-57
2021/08/17 11:19:32;;;;;;;23.40;12.75;;;18.30;99.80;;;;;;4914714;29;20032;-59
2021/08/17 11:22:00;;;;;;;24.48;13.60;;;18.40;99.90;;;;;;4918249;29;20036;-58
2021/08/17 11:24:30;;;;;;;29.30;13.45;;;18.40;99.90;;;;;;4916682;29;20028;-56
2021/08/17 11:26:58;;;;;;;27.17;13.27;;;18.10;99.90;;;;;;4918912;29;20392;-58
2021/08/17 11:29:25;;;;;;;24.10;14.80;;;18.00;99.90;;;;;;4915800;29;20080;-57
2021/08/17 11:31:53;;;;;;;23.85;12.80;;;17.80;99.90;;;;;;4918386;29;20115;-58
2021/08/17 11:34:20;;;;;;;24.63;13.45;;;17.80;99.90;;;;;;4916102;29;20024;-59
2021/08/17 11:37:13;;;;;;;27.23;14.07;;;17.90;99.90;;;;;;4919519;29;20146;-58
2021/08/17 11:39:43;;;;;;;25.17;13.75;;;17.70;99.90;;;;;;4916049;29;20595;-57
2021/08/17 11:42:09;;;;;;;27.80;14.05;;;17.50;99.90;;;;;;4914150;29;20099;-61
2021/08/17 11:44:35;;;;;;;23.92;13.13;;;17.60;99.90;;;;;;4918153;29;20055;-58
2021/08/17 11:47:06;;;;;;;24.58;13.52;;;17.60;99.90;;;;;;4917261;29;20056;-58
2021/08/17 11:49:32;;;;;;;27.20;13.63;;;17.30;99.90;;;;;;4914032;29;20044;-57
2021/08/17 11:52:04;;;;;;;20.05;12.50;;;17.10;99.90;;;;;;4922210;29;20028;-57
2021/08/17 11:54:32;;;;;;;23.25;14.20;;;17.20;99.90;;;;;;4918348;29;20132;-56
2021/08/17 11:57:04;;;;;;;25.90;13.70;;;17.20;99.90;;;;;;4913516;29;20028;-59
2021/08/17 11:59:37;;;;;;;24.43;13.20;;;17.20;99.90;;;;;;4918760;29;20047;-58
2021/08/17 12:02:03;;;;;;;23.30;13.95;;;17.10;99.90;;;;;;4915421;29;20272;-55
2021/08/17 12:04:29;;;;;;;30.20;13.88;;;17.10;99.90;;;;;;4925228;29;20503;-56
2021/08/17 12:07:14;;;;;;;24.58;14.48;;;17.10;99.90;;;;;;4910992;29;20027;-55
2021/08/17 12:09:45;;;;;;;23.40;12.73;;;17.20;99.90;;;;;;4922327;29;20133;-57
2021/08/17 12:12:14;;;;;;;28.02;13.13;;;17.30;99.90;;;;;;4925001;29;20130;-57
2021/08/17 12:14:40;;;;;;;30.08;12.38;;;17.30;99.90;;;;;;4920373;29;20036;-53
2021/08/17 12:17:08;;;;;;;20.75;11.57;;;17.20;99.90;;;;;;4916360;29;20119;-58
2021/08/17 12:19:34;;;;;;;26.70;12.95;;;17.30;99.90;;;;;;4916381;28;20047;-56
2021/08/17 12:22:01;;;;;;;19.65;11.98;;;17.50;99.90;;;;;;4919405;29;20040;-52
2021/08/17 12:24:31;;;;;;;18.85;9.80;;;17.50;99.90;;;;;;4918398;29;20040;-55
2021/08/17 12:27:02;;;;;;;19.20;9.63;;;17.50;99.90;;;;;;4910569;29;20106;-55
2021/08/17 12:29:41;;;;;;;22.20;10.05;;;17.40;99.90;;;;;;4918869;29;20036;-58
2021/08/17 12:32:28;;;;;;;17.85;9.48;;;17.20;99.90;;;;;;4910650;29;20538;-60